createdAt,value
2023-04-18T00:00:30.177Z,10.35
2023-04-18T00:02:59.171Z,9.65
2023-04-18T00:05:27.784Z,10.50
2023-04-18T00:07:54.890Z,10.55
2023-04-18T00:10:22.033Z,10.45
2023-04-18T00:12:49.064Z,10.27
2023-04-18T00:15:16.095Z,10.75
2023-04-18T00:17:43.459Z,10.52
2023-04-18T00:20:11.191Z,10.85
2023-04-18T00:22:42.532Z,11.18
2023-04-18T00:25:11.008Z,11.80
2023-04-18T00:27:40.794Z,11.88
2023-04-18T00:30:08.911Z,11.32
2023-04-18T00:32:36.128Z,11.73
2023-04-18T00:35:04.084Z,10.77
2023-04-18T00:37:31.138Z,11.23
2023-04-18T00:39:58.212Z,11.55
2023-04-18T00:42:29.336Z,11.60
2023-04-18T00:44:56.567Z,10.55
2023-04-18T00:47:23.765Z,11.40
2023-04-18T00:49:50.913Z,11.25
2023-04-18T00:52:18.444Z,11.30
2023-04-18T00:54:45.645Z,10.73
2023-04-18T00:57:13.083Z,11.38
2023-04-18T00:59:40.223Z,10.70
2023-04-18T01:02:07.338Z,12.02
2023-04-18T01:04:34.547Z,10.88
2023-04-18T01:07:02.279Z,10.88
2023-04-18T01:09:29.372Z,11.48
2023-04-18T01:11:56.458Z,11.75
2023-04-18T01:14:24.057Z,11.32
2023-04-18T01:16:51.147Z,10.85
2023-04-18T01:19:18.297Z,12.07
2023-04-18T01:21:45.500Z,11.73
2023-04-18T01:24:16.375Z,15.63
2023-04-18T01:26:44.728Z,13.25
2023-04-18T01:29:11.961Z,12.63
2023-04-18T01:31:39.203Z,11.75
2023-04-18T01:34:06.492Z,12.73
2023-04-18T01:36:33.797Z,12.52
2023-04-18T01:39:01.064Z,13.27
2023-04-18T01:41:29.778Z,12.02
2023-04-18T01:43:56.922Z,13.18
2023-04-18T01:46:24.007Z,13.13
2023-04-18T01:48:51.079Z,13.23
2023-04-18T01:51:18.127Z,13.93
2023-04-18T01:53:45.181Z,15.07
2023-04-18T01:56:12.334Z,13.65
2023-04-18T01:58:39.450Z,15.10
2023-04-18T02:01:06.766Z,15.40
2023-04-18T02:03:34.100Z,15.55
2023-04-18T02:06:01.726Z,15.32
2023-04-18T02:08:30.735Z,15.55
2023-04-18T02:10:57.889Z,15.80
2023-04-18T02:13:25.056Z,16.02
2023-04-18T02:15:52.151Z,17.75
2023-04-18T02:18:19.206Z,16.70
2023-04-18T02:20:46.277Z,16.88
2023-04-18T02:23:13.350Z,17.77
2023-04-18T02:25:40.632Z,17.45
2023-04-18T02:28:07.695Z,17.30
2023-04-18T02:30:35.149Z,18.25
2023-04-18T02:33:02.294Z,19.23
2023-04-18T02:35:29.512Z,18.70
2023-04-18T02:37:56.603Z,17.73
2023-04-18T02:40:23.738Z,18.05
2023-04-18T02:42:50.897Z,19.00
2023-04-18T02:45:18.039Z,19.05
2023-04-18T02:47:54.751Z,18.33
2023-04-18T02:50:22.909Z,19.25
2023-04-18T02:52:49.963Z,19.50
2023-04-18T02:55:17.336Z,18.80
2023-04-18T02:57:44.552Z,19.55
2023-04-18T03:00:12.092Z,19.80
2023-04-18T03:02:39.229Z,19.13
2023-04-18T03:05:06.719Z,20.95
2023-04-18T03:07:33.882Z,18.50
2023-04-18T03:10:00.944Z,19.13
2023-04-18T03:12:28.016Z,19.50
2023-04-18T03:14:55.085Z,20.17
2023-04-18T03:17:22.216Z,19.95
2023-04-18T03:19:49.390Z,19.38
2023-04-18T03:22:16.607Z,18.90
2023-04-18T03:24:43.876Z,19.95
2023-04-18T03:27:11.453Z,19.55
2023-04-18T03:29:38.555Z,20.08
2023-04-18T03:32:05.954Z,19.48
2023-04-18T03:34:33.042Z,19.80
2023-04-18T03:37:00.276Z,20.23
2023-04-18T03:39:27.364Z,20.80
2023-04-18T03:41:54.474Z,20.52
2023-04-18T03:44:21.538Z,21.15
2023-04-18T03:46:48.728Z,21.20
2023-04-18T03:49:16.007Z,21.38
2023-04-18T03:51:43.854Z,19.45
2023-04-18T03:54:11.013Z,19.67
2023-04-18T03:56:38.113Z,18.98
2023-04-18T03:59:05.219Z,18.20
2023-04-18T04:01:32.270Z,18.15
2023-04-18T04:03:59.498Z,17.63
2023-04-18T04:06:27.315Z,17.35
2023-04-18T04:08:54.395Z,16.90
2023-04-18T04:11:21.853Z,16.63
2023-04-18T04:13:48.929Z,16.10
2023-04-18T04:16:16.048Z,15.82
2023-04-18T04:18:43.128Z,14.05
2023-04-18T04:21:10.179Z,15.60
2023-04-18T04:23:38.003Z,14.60
2023-04-18T04:26:05.135Z,15.30
2023-04-18T04:28:32.535Z,14.02
2023-04-18T04:30:59.958Z,14.70
2023-04-18T04:33:29.818Z,13.25
2023-04-18T04:35:56.995Z,12.80
2023-04-18T04:38:24.040Z,12.60
2023-04-18T04:40:51.225Z,13.30
2023-04-18T04:43:20.408Z,13.43
2023-04-18T04:45:52.511Z,12.02
2023-04-18T04:48:21.849Z,11.65
2023-04-18T04:50:55.840Z,12.07
2023-04-18T04:53:26.577Z,11.60
2023-04-18T04:55:53.735Z,10.40
2023-04-18T04:58:20.897Z,10.75
2023-04-18T05:00:48.079Z,9.52
2023-04-18T05:03:15.465Z,9.45
2023-04-18T05:05:42.583Z,9.60
2023-04-18T05:08:09.648Z,8.98
2023-04-18T05:10:37.132Z,9.65
2023-04-18T05:13:04.675Z,9.15
2023-04-18T05:15:32.308Z,8.73
2023-04-18T05:17:59.475Z,8.68
2023-04-18T05:20:26.547Z,8.80
2023-04-18T05:22:53.728Z,9.02
2023-04-18T05:25:20.927Z,7.63
2023-04-18T05:27:48.005Z,7.95
2023-04-18T05:30:15.205Z,7.43
2023-04-18T05:32:42.416Z,7.72
2023-04-18T05:35:09.565Z,7.53
2023-04-18T05:37:36.704Z,7.57
2023-04-18T05:40:04.995Z,7.45
2023-04-18T05:42:32.107Z,6.35
2023-04-18T05:44:59.153Z,6.75
2023-04-18T05:47:28.400Z,6.75
2023-04-18T05:49:55.963Z,6.45
2023-04-18T05:52:23.083Z,6.50
2023-04-18T05:54:50.842Z,5.95
2023-04-18T05:57:17.874Z,6.13
2023-04-18T05:59:44.938Z,6.47
2023-04-18T06:02:13.693Z,5.88
2023-04-18T06:04:44.919Z,6.32
2023-04-18T06:07:12.277Z,6.20
2023-04-18T06:09:39.349Z,5.95
2023-04-18T06:12:06.573Z,6.30
2023-04-18T06:14:33.726Z,6.93
2023-04-18T06:17:00.802Z,7.60
2023-04-18T06:19:27.941Z,7.40
2023-04-18T06:21:55.105Z,7.72
2023-04-18T06:24:22.978Z,7.30
2023-04-18T06:26:50.103Z,8.65
2023-04-18T06:29:18.224Z,8.20
2023-04-18T06:31:46.659Z,9.07
2023-04-18T06:34:14.094Z,8.65
2023-04-18T06:36:41.256Z,9.38
2023-04-18T06:39:08.467Z,9.43
2023-04-18T06:41:35.536Z,10.00
2023-04-18T06:44:04.058Z,9.75
2023-04-18T06:46:32.121Z,9.48
2023-04-18T06:48:59.330Z,10.05
2023-04-18T06:51:27.302Z,11.45
2023-04-18T06:53:54.440Z,10.57
2023-04-18T06:56:21.527Z,10.13
2023-04-18T06:58:48.908Z,10.05
2023-04-18T07:01:16.076Z,10.43
2023-04-18T07:03:43.279Z,10.73
2023-04-18T07:06:11.033Z,11.57
2023-04-18T07:08:38.231Z,11.90
2023-04-18T07:11:06.058Z,12.30
2023-04-18T07:13:33.141Z,12.55
2023-04-18T07:16:01.258Z,11.88
2023-04-18T07:18:37.450Z,12.55
2023-04-18T07:21:07.523Z,12.48
2023-04-18T07:23:35.098Z,11.77
2023-04-18T07:26:02.798Z,11.57
2023-04-18T07:28:30.160Z,12.52
2023-04-18T07:30:57.218Z,12.68
2023-04-18T07:33:24.601Z,11.40
2023-04-18T07:35:52.880Z,12.18
2023-04-18T07:38:20.050Z,12.07
2023-04-18T07:40:47.164Z,11.75
2023-04-18T07:43:14.233Z,11.48
2023-04-18T07:45:43.201Z,11.30
2023-04-18T07:48:11.297Z,11.13
2023-04-18T07:50:38.610Z,10.82
2023-04-18T07:53:06.153Z,10.52
2023-04-18T07:55:33.250Z,11.20
2023-04-18T07:58:00.357Z,10.38
2023-04-18T08:00:28.680Z,10.40
2023-04-18T08:02:56.539Z,9.70
2023-04-18T08:05:23.847Z,8.68
2023-04-18T08:07:51.132Z,8.95
2023-04-18T08:10:18.229Z,8.23
2023-04-18T08:12:45.513Z,6.70
2023-04-18T08:15:12.617Z,6.85
2023-04-18T08:17:39.729Z,6.10
2023-04-18T08:20:07.233Z,5.82
2023-04-18T08:22:34.546Z,6.00
2023-04-18T08:25:05.478Z,5.80
2023-04-18T08:27:33.055Z,5.63
2023-04-18T08:30:00.829Z,5.78
2023-04-18T08:32:27.945Z,5.40
2023-04-18T08:34:55.030Z,5.22
2023-04-18T08:37:22.107Z,5.60
2023-04-18T08:39:49.176Z,4.78
2023-04-18T08:42:19.165Z,5.53
2023-04-18T08:44:47.249Z,4.63
2023-04-18T08:47:14.622Z,5.00
2023-04-18T08:49:41.815Z,3.90
2023-04-18T08:52:12.375Z,4.45
2023-04-18T08:54:42.038Z,4.10
2023-04-18T08:57:13.672Z,4.18
2023-04-18T08:59:43.141Z,4.60
2023-04-18T09:02:11.640Z,4.15
2023-04-18T09:04:39.559Z,4.00
2023-04-18T09:07:07.545Z,3.83
2023-04-18T09:09:44.077Z,4.38
2023-04-18T09:12:14.144Z,3.47
2023-04-18T09:14:45.085Z,4.10
2023-04-18T09:17:13.311Z,4.15
2023-04-18T09:19:48.807Z,4.10
2023-04-18T09:22:16.251Z,3.65
2023-04-18T09:25:09.901Z,3.47
2023-04-18T09:27:37.480Z,3.33
2023-04-18T09:30:05.521Z,3.60
2023-04-18T09:32:33.212Z,3.60
2023-04-18T09:35:03.989Z,3.30
2023-04-18T09:37:31.832Z,3.63
2023-04-18T09:39:59.082Z,3.65
2023-04-18T09:42:28.678Z,4.28
2023-04-18T09:45:02.245Z,3.58
2023-04-18T09:47:29.446Z,3.55
2023-04-18T09:49:56.571Z,3.58
2023-04-18T09:52:25.577Z,4.18
2023-04-18T09:54:58.431Z,3.80
2023-04-18T09:57:27.610Z,3.83
2023-04-18T09:59:57.826Z,3.65
2023-04-18T10:02:24.949Z,3.83
2023-04-18T10:04:52.276Z,4.00
2023-04-18T10:07:19.400Z,3.83
2023-04-18T10:09:46.923Z,3.70
2023-04-18T10:12:14.042Z,4.07
2023-04-18T10:14:43.136Z,3.83
2023-04-18T10:17:11.754Z,4.07
2023-04-18T10:19:44.196Z,4.10
2023-04-18T10:22:11.604Z,4.03
2023-04-18T10:24:54.052Z,3.88
2023-04-18T10:27:39.637Z,3.70
2023-04-18T10:30:08.982Z,3.95
2023-04-18T10:32:36.412Z,4.20
2023-04-18T10:35:03.615Z,4.50
2023-04-18T10:37:32.087Z,4.68
2023-04-18T10:40:00.887Z,4.70
2023-04-18T10:42:46.239Z,4.75
2023-04-18T10:45:19.637Z,4.63
2023-04-18T10:47:46.980Z,4.75
2023-04-18T10:50:14.249Z,5.00
2023-04-18T10:52:41.674Z,4.85
2023-04-18T10:55:09.884Z,5.05
2023-04-18T10:57:46.627Z,4.55
2023-04-18T11:00:15.167Z,5.03
2023-04-18T11:02:48.553Z,5.35
2023-04-18T11:05:19.114Z,4.50
2023-04-18T11:07:46.495Z,4.53
2023-04-18T11:10:13.857Z,4.78
2023-04-18T11:12:41.252Z,5.63
2023-04-18T11:15:17.549Z,4.78
2023-04-18T11:17:44.808Z,5.05
2023-04-18T11:20:15.275Z,4.95
2023-04-18T11:22:53.090Z,4.70
2023-04-18T11:25:22.216Z,4.82
2023-04-18T11:27:51.558Z,5.38
2023-04-18T11:30:18.744Z,4.90
2023-04-18T11:32:45.920Z,4.60
2023-04-18T11:35:13.495Z,5.10
2023-04-18T11:37:40.882Z,5.15
2023-04-18T11:40:11.142Z,5.10
2023-04-18T11:45:09.472Z,4.95
2023-04-18T11:47:36.599Z,4.88
2023-04-18T11:50:04.739Z,4.97
2023-04-18T11:52:32.544Z,5.82
2023-04-18T11:55:19.519Z,5.43
2023-04-18T11:57:56.113Z,5.15
2023-04-18T12:00:37.152Z,5.05
2023-04-18T12:03:04.864Z,5.53
2023-04-18T12:05:32.941Z,5.82
2023-04-18T12:08:29.276Z,5.88
2023-04-18T12:10:56.401Z,5.90
2023-04-18T12:13:27.561Z,6.57
2023-04-18T12:15:54.779Z,7.20
2023-04-18T12:18:22.085Z,6.72
2023-04-18T12:20:54.125Z,6.57
2023-04-18T12:23:38.707Z,6.75
2023-04-18T12:26:06.978Z,7.72
2023-04-18T12:28:34.670Z,8.15
2023-04-18T12:31:02.068Z,8.73
2023-04-18T12:33:29.347Z,9.57
2023-04-18T12:35:56.627Z,8.82
2023-04-18T12:38:23.974Z,9.50
2023-04-18T12:40:51.332Z,9.18
2023-04-18T12:43:18.665Z,10.25
2023-04-18T12:45:48.727Z,10.45
2023-04-18T12:48:15.855Z,9.60
2023-04-18T12:50:42.936Z,10.77
2023-04-18T12:53:10.045Z,10.43
2023-04-18T12:55:37.580Z,9.82
2023-04-18T12:58:04.757Z,10.73
2023-04-18T13:00:32.525Z,9.25
2023-04-18T13:02:59.927Z,9.80
2023-04-18T13:05:29.938Z,9.52
2023-04-18T13:08:15.222Z,10.18
2023-04-18T13:10:43.303Z,10.90
2023-04-18T13:13:10.434Z,10.80
2023-04-18T13:15:37.528Z,11.05
2023-04-18T13:18:06.302Z,11.25
2023-04-18T13:20:34.013Z,10.93
2023-04-18T13:23:01.260Z,9.98
2023-04-18T13:25:28.317Z,10.30
2023-04-18T13:27:56.268Z,10.82
2023-04-18T13:30:23.336Z,10.43
2023-04-18T13:32:50.779Z,11.75
2023-04-18T13:35:17.887Z,10.18
2023-04-18T13:37:44.969Z,10.80
2023-04-18T13:40:12.372Z,9.48
2023-04-18T13:42:39.528Z,9.25
2023-04-18T13:45:07.240Z,9.63
2023-04-18T13:47:34.974Z,9.57
2023-04-18T13:50:02.231Z,9.30
2023-04-18T13:52:29.313Z,8.82
2023-04-18T13:54:56.400Z,9.65
2023-04-18T13:57:23.525Z,8.73
2023-04-18T13:59:50.620Z,9.27
2023-04-18T14:02:17.861Z,9.15
2023-04-18T14:04:45.196Z,8.77
2023-04-18T14:07:12.579Z,8.70
2023-04-18T14:09:39.675Z,8.23
2023-04-18T14:12:06.845Z,8.55
2023-04-18T14:14:33.958Z,9.00
2023-04-18T14:17:01.045Z,7.95
2023-04-18T14:19:28.132Z,7.85
2023-04-18T14:21:55.298Z,7.93
2023-04-18T14:24:22.436Z,8.07
2023-04-18T14:26:49.496Z,7.95
2023-04-18T14:29:16.882Z,6.93
2023-04-18T14:31:44.182Z,7.28
2023-04-18T14:34:11.297Z,7.35
2023-04-18T14:36:38.315Z,7.22
2023-04-18T14:39:05.500Z,7.53
2023-04-18T14:41:32.949Z,6.95
2023-04-18T14:44:00.168Z,6.55
2023-04-18T14:46:28.251Z,6.78
2023-04-18T14:48:55.553Z,7.18
2023-04-18T14:51:23.176Z,7.43
2023-04-18T14:56:16.226Z,7.07
2023-04-18T14:58:43.788Z,6.80
2023-04-18T15:01:10.871Z,6.63
2023-04-18T15:03:38.140Z,7.13
2023-04-18T15:06:05.515Z,6.82
2023-04-18T15:15:57.214Z,7.97
2023-04-18T15:20:39.491Z,6.93
2023-04-18T15:23:07.033Z,6.45
2023-04-18T15:25:35.116Z,6.60
2023-04-18T15:28:02.238Z,6.78
2023-04-18T15:30:29.393Z,6.32
2023-04-18T15:32:57.095Z,6.22
2023-04-18T15:35:24.301Z,6.32
2023-04-18T15:37:51.647Z,5.95
2023-04-18T15:40:18.768Z,6.38
2023-04-18T15:42:45.968Z,6.90
2023-04-18T15:45:13.209Z,6.20
2023-04-18T15:47:41.304Z,6.20
2023-04-18T15:50:09.087Z,5.65
2023-04-18T15:52:36.695Z,6.28
2023-04-18T15:55:04.879Z,5.50
2023-04-18T15:57:32.386Z,5.95
2023-04-18T15:59:59.754Z,5.68
2023-04-18T16:02:27.025Z,5.90
2023-04-18T16:04:54.226Z,5.20
2023-04-18T16:07:22.021Z,5.88
2023-04-18T16:09:49.036Z,6.30
2023-04-18T16:12:16.297Z,5.85
2023-04-18T16:14:43.414Z,6.82
2023-04-18T16:17:10.457Z,7.15
2023-04-18T16:19:38.298Z,6.65
2023-04-18T16:22:07.029Z,6.65
2023-04-18T16:24:34.160Z,6.63
2023-04-18T16:27:01.364Z,6.18
2023-04-18T16:29:28.464Z,6.32
2023-04-18T16:31:55.630Z,7.07
2023-04-18T16:34:22.747Z,7.13
2023-04-18T16:36:51.141Z,6.55
2023-04-18T16:39:19.201Z,6.75
2023-04-18T16:41:46.454Z,7.05
2023-04-18T16:44:13.782Z,6.85
2023-04-18T16:46:41.120Z,6.88
2023-04-18T16:49:08.273Z,7.32
2023-04-18T16:51:37.151Z,7.78
2023-04-18T16:54:04.668Z,7.10
2023-04-18T16:56:31.742Z,7.90
2023-04-18T16:58:59.062Z,7.40
2023-04-18T17:01:26.167Z,7.40
2023-04-18T17:03:53.840Z,6.97
2023-04-18T17:06:22.648Z,7.05
2023-04-18T17:08:49.835Z,7.68
2023-04-18T17:11:16.948Z,7.57
2023-04-18T17:13:44.073Z,6.90
2023-04-18T17:16:11.265Z,7.72
2023-04-18T17:18:38.366Z,7.63
2023-04-18T17:21:05.419Z,6.97
2023-04-18T17:23:33.180Z,7.28
2023-04-18T17:26:00.445Z,7.90
2023-04-18T17:28:27.607Z,7.55
2023-04-18T17:30:57.276Z,8.00
2023-04-18T17:33:24.362Z,7.83
2023-04-18T17:35:51.863Z,7.97
2023-04-18T17:38:18.946Z,11.55
2023-04-18T17:40:46.001Z,8.68
2023-04-18T17:43:13.154Z,9.73
2023-04-18T17:45:40.447Z,8.40
2023-04-18T17:48:07.660Z,9.90
2023-04-18T17:50:36.917Z,9.40
2023-04-18T17:53:04.162Z,8.55
2023-04-18T17:55:31.269Z,9.10
2023-04-18T17:57:58.290Z,7.88
2023-04-18T18:00:25.650Z,8.32
2023-04-18T18:02:52.906Z,8.07
2023-04-18T18:05:20.151Z,8.13
2023-04-18T18:07:47.741Z,8.65
2023-04-18T18:10:18.998Z,7.90
2023-04-18T18:12:46.265Z,7.82
2023-04-18T18:15:13.434Z,8.25
2023-04-18T18:17:40.594Z,7.50
2023-04-18T18:20:09.761Z,8.07
2023-04-18T18:22:37.193Z,8.27
2023-04-18T18:25:05.393Z,7.82
2023-04-18T18:27:32.438Z,8.35
2023-04-18T18:29:59.538Z,8.63
2023-04-18T18:32:26.979Z,9.25
2023-04-18T18:34:54.375Z,8.48
2023-04-18T18:37:23.222Z,8.57
2023-04-18T18:39:50.359Z,8.93
2023-04-18T18:42:17.478Z,8.23
2023-04-18T18:44:44.515Z,9.02
2023-04-18T18:47:11.588Z,9.23
2023-04-18T18:49:38.654Z,9.20
2023-04-18T18:52:05.713Z,8.73
2023-04-18T18:54:32.860Z,8.32
2023-04-18T18:57:02.581Z,8.70
2023-04-18T18:59:30.483Z,11.23
2023-04-18T19:01:57.730Z,10.98
2023-04-18T19:04:24.951Z,10.27
2023-04-18T19:06:53.406Z,9.60
2023-04-18T19:09:20.440Z,9.90
2023-04-18T19:11:47.504Z,8.40
2023-04-18T19:14:14.532Z,8.05
2023-04-18T19:16:41.740Z,8.30
2023-04-18T19:19:08.968Z,7.55
2023-04-18T19:21:36.043Z,7.40
2023-04-18T19:24:03.095Z,7.70
2023-04-18T19:26:30.128Z,8.77
2023-04-18T19:28:57.304Z,8.52
2023-04-18T19:31:24.442Z,8.55
2023-04-18T19:33:51.505Z,7.97
2023-04-18T19:36:19.026Z,8.15
2023-04-18T19:38:46.182Z,7.75
2023-04-18T19:41:13.226Z,8.07
2023-04-18T19:43:40.692Z,7.85
2023-04-18T19:46:07.821Z,8.70
2023-04-18T19:48:34.949Z,8.20
2023-04-18T19:51:03.820Z,8.52
2023-04-18T19:53:31.087Z,7.95
2023-04-18T19:55:58.158Z,8.95
2023-04-18T19:58:39.537Z,8.68
2023-04-18T20:01:07.500Z,8.48
2023-04-18T20:03:34.964Z,9.27
2023-04-18T20:06:02.433Z,8.13
2023-04-18T20:08:29.646Z,8.05
2023-04-18T20:10:56.671Z,7.70
2023-04-18T20:13:23.746Z,8.07
2023-04-18T20:15:50.782Z,7.93
2023-04-18T20:18:17.950Z,7.70
2023-04-18T20:20:45.030Z,7.50
2023-04-18T20:23:14.312Z,7.95
2023-04-18T20:25:41.526Z,6.93
2023-04-18T20:28:08.702Z,6.78
2023-04-18T20:30:36.829Z,7.25
2023-04-18T20:33:04.015Z,7.05
2023-04-18T20:35:31.535Z,6.43
2023-04-18T20:38:00.256Z,6.93
2023-04-18T20:40:28.167Z,7.57
2023-04-18T20:42:57.813Z,7.50
2023-04-18T20:45:25.593Z,7.30
2023-04-18T20:47:52.704Z,7.25
2023-04-18T20:50:20.620Z,6.82
2023-04-18T20:52:47.879Z,7.22
2023-04-18T20:55:16.722Z,7.15
2023-04-18T20:57:43.884Z,6.47
2023-04-18T21:00:11.226Z,6.60
2023-04-18T21:02:38.409Z,6.40
2023-04-18T21:05:05.821Z,5.97
2023-04-18T21:07:32.872Z,6.65
2023-04-18T21:09:59.913Z,6.30
2023-04-18T21:12:27.543Z,6.22
2023-04-18T21:14:54.631Z,6.43
2023-04-18T21:17:21.852Z,6.63
2023-04-18T21:19:49.131Z,6.88
2023-04-18T21:22:16.299Z,6.63
2023-04-18T21:24:43.606Z,6.50
2023-04-18T21:27:10.694Z,6.95
2023-04-18T21:29:37.713Z,6.53
2023-04-18T21:32:04.842Z,6.32
2023-04-18T21:34:31.876Z,6.55
2023-04-18T21:36:59.482Z,6.95
2023-04-18T21:39:27.615Z,6.93
2023-04-18T21:41:54.629Z,7.10
2023-04-18T21:44:21.694Z,6.75
2023-04-18T21:46:48.793Z,6.75
2023-04-18T21:49:16.049Z,7.47
2023-04-18T21:51:43.332Z,6.93
2023-04-18T21:54:10.433Z,6.50
2023-04-18T21:56:37.536Z,6.70
2023-04-18T21:59:04.631Z,7.35
2023-04-18T22:01:34.214Z,7.32
2023-04-18T22:04:01.963Z,7.90
2023-04-18T22:06:29.753Z,7.18
2023-04-18T22:08:58.192Z,7.63
2023-04-18T22:11:25.656Z,7.40
2023-04-18T22:13:54.218Z,7.90
2023-04-18T22:16:24.843Z,7.88
2023-04-18T22:18:52.039Z,8.23
2023-04-18T22:21:19.144Z,8.38
2023-04-18T22:23:46.290Z,7.93
2023-04-18T22:26:13.433Z,8.30
2023-04-18T22:28:40.547Z,8.75
2023-04-18T22:31:07.664Z,8.18
2023-04-18T22:33:34.874Z,9.25
2023-04-18T22:36:01.933Z,8.30
2023-04-18T22:38:29.018Z,8.90
2023-04-18T22:40:56.040Z,8.82
2023-04-18T22:43:24.259Z,9.07
2023-04-18T22:45:51.533Z,9.02
2023-04-18T22:48:18.911Z,8.77
2023-04-18T22:50:46.181Z,8.80
2023-04-18T22:53:14.362Z,8.13
2023-04-18T22:55:41.675Z,8.15
2023-04-18T22:58:08.872Z,8.57
2023-04-18T23:00:36.068Z,8.88
2023-04-18T23:03:03.254Z,9.55
2023-04-18T23:05:30.551Z,9.90
2023-04-18T23:08:00.090Z,8.98
2023-04-18T23:10:27.501Z,10.02
2023-04-18T23:12:54.679Z,10.00
2023-04-18T23:15:22.799Z,10.32
2023-04-18T23:17:51.886Z,10.82
2023-04-18T23:20:19.276Z,10.57
2023-04-18T23:22:47.492Z,10.02
2023-04-18T23:25:14.541Z,11.02
2023-04-18T23:27:41.670Z,10.80
2023-04-18T23:30:08.947Z,11.63
2023-04-18T23:32:36.025Z,11.52
2023-04-18T23:35:04.212Z,12.13
2023-04-18T23:37:31.573Z,10.88
2023-04-18T23:39:59.487Z,12.05
2023-04-18T23:42:26.607Z,11.38
2023-04-18T23:44:54.514Z,11.63
2023-04-18T23:47:21.933Z,11.43
2023-04-18T23:49:49.104Z,11.52
2023-04-18T23:52:16.202Z,11.75
2023-04-18T23:54:43.363Z,11.77
2023-04-18T23:57:10.438Z,12.02
2023-04-18T23:59:37.516Z,12.20
